Aviation Digital Data Service (ADDS)

Output produced by METARs form (0746 UTC 18 January 2018)
found at http://aviationweather.gov/adds/metars/
 
TAF COR KECG 180558Z 1806/1906 35016G26KT 1 1/2SM -SN SCT008 OVC012 
     TEMPO 1806/1809 1/2SM SN FZFG BKN008 
     FM180900 34014G24KT P6SM VCSH OVC015 
     FM181200 32012G20KT P6SM SCT080 
     FM181800 28011KT P6SM SKC